首页
METAR-TAF:

METAR-TAF

机场 :

博韦, 法国

纬度: 49-28N, 经度: 002-07E, 海拔: 109米

当前天气观测

该预报发布于20分钟前的03:30 UTC
风速9节,风向
温度 12°C
湿度 88%
气压 1013 hPa
能见度10公里或以上
阴天层高于1900英尺

METAR: LFOB 240330Z AUTO 19009KT 9999 OVC019 12/10 Q1013 TEMPO 4000 RA BKN005

时间: 05:50 (03:50 UTC)

预报

该预报发布于4小时和50分钟前的23:00 UTC
预报有效从24日的 00点(UTC)到 24日的 24点(UTC)
风速10节,风向南转西南
能见度10公里或以上
多云层高于3500英尺
短暂存在
从 24日的 00点(UTC)到 24日的 15点(UTC)
能見度: 4000
多云层高于500英尺
成为
从 24日的 09点(UTC)到 24日的 11点(UTC)
风速20节,风向,有时为33节阵风

TAF: LFOB 232300Z 2400/2424 21010KT 9999 BKN035 TEMPO 2400/2415 4000 RA BKN005 BECMG 2409/2411 19020G33KT

超过4000个机场的气象观测和天气预报(METAR&TAF报告)。

可查询的气象台以黄色和红色小点在地图上表示。

将鼠标移到小点上方,可查看气象台名称。

然后点击查看天气观测和预报。

如需切换地图:点击带黑十字的绿色按钮放大地图;点击带横线的绿色按钮缩小地图;或者点击绿色箭头查看邻近地区的地图。


METAR-TAF: